createdAt,value
2022-07-26T00:00:42.563Z,47.83
2022-07-26T00:01:42.818Z,48.13
2022-07-26T00:02:48.191Z,48.03
2022-07-26T00:03:42.500Z,47.83
2022-07-26T00:04:42.304Z,47.93
2022-07-26T00:05:42.434Z,47.74
2022-07-26T00:06:42.234Z,48.13
2022-07-26T00:07:42.247Z,48.22
2022-07-26T00:08:42.160Z,48.22
2022-07-26T00:09:47.782Z,48.61
2022-07-26T00:10:42.267Z,48.22
2022-07-26T00:11:42.116Z,48.52
2022-07-26T00:12:42.075Z,48.71
2022-07-26T00:13:41.967Z,49.37
2022-07-26T00:14:42.102Z,50.34
2022-07-26T00:15:42.103Z,49.56
2022-07-26T00:16:41.945Z,50.24
2022-07-26T00:17:41.904Z,50.14
2022-07-26T00:18:41.783Z,50.14
2022-07-26T00:19:41.946Z,50.04
2022-07-26T00:20:41.708Z,50.21
2022-07-26T00:21:41.674Z,50.89
2022-07-26T00:22:41.742Z,50.70
2022-07-26T00:23:41.796Z,51.09
2022-07-26T00:24:41.753Z,51.37
2022-07-26T00:25:41.522Z,52.25
2022-07-26T00:26:41.480Z,52.71
2022-07-26T00:27:41.446Z,52.64
2022-07-26T00:28:41.574Z,54.16
2022-07-26T00:29:41.373Z,54.06
2022-07-26T00:30:41.385Z,53.97
2022-07-26T00:31:41.415Z,53.97
2022-07-26T00:32:41.254Z,54.26
2022-07-26T00:33:41.415Z,53.97
2022-07-26T00:34:41.271Z,54.26
2022-07-26T00:35:41.239Z,55.13
2022-07-26T00:36:41.829Z,54.74
2022-07-26T00:37:41.232Z,54.94
2022-07-26T00:38:41.253Z,55.04
2022-07-26T00:39:41.003Z,55.04
2022-07-26T00:40:41.058Z,55.71
2022-07-26T00:41:40.913Z,55.71
2022-07-26T00:42:41.072Z,56.59
2022-07-26T00:43:40.835Z,56.59
2022-07-26T00:44:40.885Z,56.68
2022-07-26T00:45:40.770Z,56.68
2022-07-26T00:46:41.163Z,57.17
2022-07-26T00:47:40.681Z,56.39
2022-07-26T00:48:40.746Z,56.87
2022-07-26T00:49:40.706Z,57.26
2022-07-26T00:50:40.576Z,58.23
2022-07-26T00:51:40.722Z,58.49
2022-07-26T00:52:40.516Z,58.78
2022-07-26T00:53:40.530Z,58.88
2022-07-26T00:54:40.417Z,59.46
2022-07-26T00:55:40.395Z,59.46
2022-07-26T00:56:40.556Z,58.78
2022-07-26T00:57:40.293Z,59.66
2022-07-26T00:58:40.564Z,59.46
2022-07-26T00:59:40.224Z,59.30
2022-07-26T01:00:41.395Z,59.39
2022-07-26T01:01:40.284Z,59.39
2022-07-26T01:02:40.253Z,58.72
2022-07-26T01:03:40.150Z,59.49
2022-07-26T01:04:40.198Z,59.88
2022-07-26T01:05:39.995Z,59.39
2022-07-26T01:06:39.960Z,59.84
2022-07-26T01:07:39.918Z,60.43
2022-07-26T01:08:40.022Z,60.14
2022-07-26T01:09:39.839Z,60.24
2022-07-26T01:10:40.242Z,60.24
2022-07-26T01:11:39.761Z,60.72
2022-07-26T01:12:39.749Z,61.33
2022-07-26T01:13:39.692Z,61.33
2022-07-26T01:14:39.872Z,60.65
2022-07-26T01:15:39.693Z,60.75
2022-07-26T01:16:39.927Z,61.43
2022-07-26T01:17:39.532Z,61.11
2022-07-26T01:18:39.498Z,61.21
2022-07-26T01:19:39.694Z,61.21
2022-07-26T01:20:39.434Z,61.69
2022-07-26T01:21:39.504Z,61.91
2022-07-26T01:22:39.557Z,62.27
2022-07-26T01:23:39.519Z,62.56
2022-07-26T01:24:39.265Z,62.37
2022-07-26T01:25:43.754Z,62.66
2022-07-26T01:26:39.185Z,62.66
2022-07-26T01:27:39.629Z,63.04
2022-07-26T01:28:39.141Z,63.14
2022-07-26T01:29:39.086Z,63.01
2022-07-26T01:30:39.040Z,63.04
2022-07-26T01:31:39.250Z,62.85
2022-07-26T01:32:39.472Z,62.56
2022-07-26T01:33:38.981Z,62.66
2022-07-26T01:34:39.040Z,62.95
2022-07-26T01:35:39.032Z,63.04
2022-07-26T01:36:39.572Z,62.75
2022-07-26T01:37:38.787Z,62.75
2022-07-26T01:38:38.803Z,62.75
2022-07-26T01:39:38.690Z,63.24
2022-07-26T01:40:38.823Z,63.43
2022-07-26T01:41:38.878Z,63.04
2022-07-26T01:42:38.634Z,63.14
2022-07-26T01:43:38.546Z,63.24
2022-07-26T01:44:38.642Z,63.34
2022-07-26T01:45:38.555Z,63.53
2022-07-26T01:46:38.437Z,63.92
2022-07-26T01:47:38.436Z,63.53
2022-07-26T01:48:38.616Z,63.62
2022-07-26T01:49:38.311Z,63.24
2022-07-26T01:50:38.382Z,63.24
2022-07-26T01:51:38.242Z,63.34
2022-07-26T01:52:38.194Z,63.14
2022-07-26T01:53:38.245Z,63.34
2022-07-26T01:54:38.209Z,63.14
2022-07-26T01:55:38.086Z,63.34
2022-07-26T01:56:38.225Z,63.24
2022-07-26T01:57:38.109Z,63.53
2022-07-26T01:58:37.960Z,63.34
2022-07-26T01:59:38.039Z,63.24
2022-07-26T02:00:37.894Z,62.85
2022-07-26T02:01:40.126Z,62.85
2022-07-26T02:02:37.901Z,63.14
2022-07-26T02:03:37.861Z,63.43
2022-07-26T02:04:37.740Z,63.04
2022-07-26T02:05:38.085Z,63.34
2022-07-26T02:06:37.818Z,63.37
2022-07-26T02:07:37.702Z,62.85
2022-07-26T02:08:37.581Z,62.66
2022-07-26T02:09:39.685Z,62.56
2022-07-26T02:10:37.514Z,63.24
2022-07-26T02:11:37.521Z,62.85
2022-07-26T02:12:37.589Z,62.66
2022-07-26T02:13:37.537Z,63.14
2022-07-26T02:14:37.356Z,63.04
2022-07-26T02:15:37.379Z,62.95
2022-07-26T02:16:39.397Z,62.95
2022-07-26T02:17:45.809Z,63.04
2022-07-26T02:18:46.334Z,63.34
2022-07-26T02:20:02.875Z,62.66
2022-07-26T02:20:46.799Z,63.04
2022-07-26T02:21:45.952Z,63.04
2022-07-26T02:22:45.483Z,63.24
2022-07-26T02:23:45.030Z,63.24
2022-07-26T02:24:36.995Z,63.34
2022-07-26T02:25:49.556Z,63.24
2022-07-26T02:28:21.877Z,63.62
2022-07-26T02:29:15.113Z,64.30
2022-07-26T02:30:21.418Z,64.11
2022-07-26T02:31:15.586Z,63.92
2022-07-26T02:32:21.236Z,64.40
2022-07-26T02:33:44.996Z,64.37
2022-07-26T02:34:21.526Z,64.17
2022-07-26T02:35:21.555Z,64.07
2022-07-26T02:36:22.594Z,64.37
2022-07-26T02:37:21.136Z,65.14
2022-07-26T02:38:21.182Z,65.24
2022-07-26T02:39:21.226Z,65.69
2022-07-26T02:40:21.746Z,65.79
2022-07-26T02:41:21.785Z,65.88
2022-07-26T02:42:21.322Z,65.98
2022-07-26T02:43:13.374Z,66.17
2022-07-26T02:44:13.120Z,66.37
2022-07-26T02:45:13.182Z,66.27
2022-07-26T02:46:13.085Z,66.66
2022-07-26T02:47:13.193Z,66.85
2022-07-26T02:48:12.963Z,67.05
2022-07-26T02:49:13.062Z,66.95
2022-07-26T02:50:12.892Z,67.33
2022-07-26T02:51:13.224Z,67.33
2022-07-26T02:52:12.849Z,67.53
2022-07-26T02:53:12.833Z,67.40
2022-07-26T02:54:12.729Z,67.14
2022-07-26T02:55:12.846Z,67.43
2022-07-26T02:56:12.652Z,66.91
2022-07-26T02:57:12.855Z,67.14
2022-07-26T02:58:12.710Z,67.01
2022-07-26T02:59:12.669Z,67.30
2022-07-26T03:00:12.507Z,67.24
2022-07-26T03:01:12.730Z,67.82
2022-07-26T03:02:12.424Z,67.14
2022-07-26T03:03:12.547Z,67.53
2022-07-26T03:04:12.390Z,67.63
2022-07-26T03:05:12.510Z,67.43
2022-07-26T03:06:12.263Z,67.05
2022-07-26T03:07:12.227Z,67.05
2022-07-26T03:08:12.188Z,67.30
2022-07-26T03:09:12.335Z,67.01
2022-07-26T03:10:12.187Z,67.30
2022-07-26T03:11:12.369Z,67.33
2022-07-26T03:12:12.052Z,67.49
2022-07-26T03:13:11.990Z,67.40
2022-07-26T03:14:12.108Z,66.95
2022-07-26T03:15:11.962Z,67.63
2022-07-26T03:16:11.955Z,67.82
2022-07-26T03:17:11.983Z,67.05
2022-07-26T03:18:12.032Z,67.79
2022-07-26T03:19:11.771Z,67.43
2022-07-26T03:20:11.798Z,67.79
2022-07-26T03:21:11.689Z,67.72
2022-07-26T03:22:11.810Z,67.72
2022-07-26T03:23:11.666Z,67.82
2022-07-26T03:24:12.013Z,67.63
2022-07-26T03:25:11.526Z,67.63
2022-07-26T03:26:11.633Z,67.05
2022-07-26T03:27:11.468Z,67.14
2022-07-26T03:28:14.701Z,67.33
2022-07-26T03:29:11.376Z,67.24
2022-07-26T03:30:11.661Z,67.33
2022-07-26T03:31:11.329Z,67.63
2022-07-26T03:32:11.471Z,67.14
2022-07-26T03:33:11.230Z,67.14
2022-07-26T03:34:11.485Z,67.63
2022-07-26T03:35:11.158Z,67.24
2022-07-26T03:36:11.582Z,67.05
2022-07-26T03:37:11.066Z,67.63
2022-07-26T03:38:11.108Z,67.33
2022-07-26T03:39:10.991Z,67.24
2022-07-26T03:40:11.118Z,67.33
2022-07-26T03:41:13.480Z,67.63
2022-07-26T03:42:10.881Z,67.05
2022-07-26T03:43:10.841Z,66.95
2022-07-26T03:44:11.425Z,66.75
2022-07-26T03:45:10.760Z,66.17
2022-07-26T03:46:11.002Z,66.56
2022-07-26T03:47:10.812Z,66.75
2022-07-26T03:48:10.649Z,66.56
2022-07-26T03:49:16.410Z,66.66
2022-07-26T03:50:10.565Z,67.33
2022-07-26T03:51:10.585Z,67.33
2022-07-26T03:52:10.504Z,67.53
2022-07-26T03:53:10.617Z,67.33
2022-07-26T03:54:10.630Z,67.82
2022-07-26T03:55:10.618Z,68.01
2022-07-26T03:56:10.335Z,68.49
2022-07-26T03:57:10.451Z,68.59
2022-07-26T03:58:10.249Z,68.49
2022-07-26T03:59:10.501Z,68.40
2022-07-26T04:00:10.177Z,68.01
2022-07-26T04:01:10.270Z,68.01
2022-07-26T04:02:10.130Z,67.82
2022-07-26T04:03:11.312Z,68.49
2022-07-26T04:04:10.429Z,68.40
2022-07-26T04:05:10.005Z,68.30
2022-07-26T04:06:10.094Z,69.46
2022-07-26T04:07:09.902Z,69.27
2022-07-26T04:08:10.108Z,70.04
2022-07-26T04:09:09.827Z,70.30
2022-07-26T04:10:09.910Z,70.59
2022-07-26T04:11:09.972Z,70.43
2022-07-26T04:12:10.955Z,70.14
2022-07-26T04:13:09.680Z,70.24
2022-07-26T04:14:10.224Z,70.04
2022-07-26T04:15:09.598Z,68.56
2022-07-26T04:16:09.557Z,68.56
2022-07-26T04:17:09.629Z,67.69
2022-07-26T04:18:09.558Z,67.88
2022-07-26T04:19:09.447Z,67.88
2022-07-26T04:20:09.570Z,67.98
2022-07-26T04:21:09.386Z,67.79
2022-07-26T04:22:09.435Z,67.59
2022-07-26T04:23:11.154Z,66.27
2022-07-26T04:24:09.711Z,66.05
2022-07-26T04:25:09.208Z,66.56
2022-07-26T04:26:09.408Z,66.95
2022-07-26T04:27:09.265Z,79.87
2022-07-26T04:28:09.109Z,76.01
2022-07-26T04:29:09.065Z,71.66
2022-07-26T04:30:14.415Z,72.14
2022-07-26T04:31:09.041Z,73.94
2022-07-26T04:32:09.036Z,75.29
2022-07-26T04:33:08.920Z,75.97
2022-07-26T04:34:09.491Z,77.42
2022-07-26T04:35:08.819Z,79.89
2022-07-26T04:36:09.897Z,82.89
2022-07-26T04:37:08.757Z,84.39
2022-07-26T04:38:09.899Z,85.16
2022-07-26T04:39:09.095Z,85.36
2022-07-26T04:40:08.626Z,86.86
2022-07-26T04:41:08.694Z,87.34
2022-07-26T04:42:08.620Z,87.78
2022-07-26T04:43:10.081Z,90.19
2022-07-26T04:44:08.703Z,90.05
2022-07-26T04:45:08.811Z,91.69
2022-07-26T04:46:08.490Z,93.66
2022-07-26T04:47:08.429Z,94.82
2022-07-26T04:48:08.487Z,95.69
2022-07-26T04:49:08.517Z,95.89
2022-07-26T04:50:08.233Z,96.70
2022-07-26T04:51:08.195Z,97.09
2022-07-26T04:52:08.262Z,97.67
2022-07-26T04:53:08.150Z,97.86
2022-07-26T04:54:08.595Z,98.44
2022-07-26T04:55:08.025Z,98.49
2022-07-26T04:56:07.987Z,99.21
2022-07-26T04:57:07.947Z,98.87
2022-07-26T04:58:08.107Z,99.64
2022-07-26T04:59:10.215Z,99.59
2022-07-26T05:00:24.283Z,99.74
2022-07-26T05:01:10.293Z,99.74
2022-07-26T05:02:07.875Z,99.93
2022-07-26T05:03:07.861Z,99.93
2022-07-26T05:04:08.244Z,99.74
2022-07-26T05:05:07.627Z,99.74
2022-07-26T05:06:07.650Z,99.64
2022-07-26T05:07:07.545Z,99.44
2022-07-26T05:08:07.506Z,99.84
2022-07-26T05:09:07.672Z,99.99
2022-07-26T05:10:07.523Z,99.99
2022-07-26T05:11:08.511Z,99.99
2022-07-26T05:12:07.350Z,99.99
2022-07-26T05:13:07.496Z,99.99
2022-07-26T05:14:07.572Z,99.99
2022-07-26T05:15:13.651Z,99.99
2022-07-26T05:16:11.884Z,99.99
2022-07-26T05:17:09.055Z,99.99
2022-07-26T05:18:08.939Z,99.99
2022-07-26T05:19:07.062Z,99.99
2022-07-26T05:20:07.018Z,99.99
2022-07-26T05:21:07.348Z,99.99
2022-07-26T05:22:07.020Z,99.99
2022-07-26T05:23:07.159Z,99.99
2022-07-26T05:24:07.749Z,99.99
2022-07-26T05:25:06.825Z,99.99
2022-07-26T05:26:06.785Z,99.99
2022-07-26T05:27:06.982Z,99.99
2022-07-26T05:28:06.701Z,99.99
2022-07-26T05:29:06.800Z,99.99
2022-07-26T05:30:06.646Z,99.99
2022-07-26T05:31:06.653Z,99.99
2022-07-26T05:32:06.625Z,99.99
2022-07-26T05:33:06.685Z,99.99
2022-07-26T05:34:06.895Z,99.99
2022-07-26T05:35:06.447Z,99.99
2022-07-26T05:36:06.658Z,99.99
2022-07-26T05:37:06.350Z,99.99
2022-07-26T05:38:06.462Z,99.99
2022-07-26T05:39:06.524Z,99.99
2022-07-26T05:40:06.482Z,99.99
2022-07-26T05:41:06.177Z,99.99
2022-07-26T05:42:06.134Z,99.99
2022-07-26T05:43:06.149Z,99.99
2022-07-26T05:44:06.541Z,99.99
2022-07-26T05:45:13.906Z,99.99
2022-07-26T05:47:39.031Z,99.99
2022-07-26T05:48:40.678Z,99.99
2022-07-26T05:49:40.100Z,99.99
2022-07-26T05:50:31.239Z,99.99
2022-07-26T05:51:31.201Z,99.99
2022-07-26T05:52:31.159Z,99.99
2022-07-26T05:53:31.129Z,99.99
2022-07-26T05:54:31.083Z,99.99
2022-07-26T05:55:31.055Z,99.99
2022-07-26T05:56:31.015Z,99.99
2022-07-26T05:57:30.967Z,99.99
2022-07-26T05:58:30.921Z,99.99
2022-07-26T05:59:30.880Z,99.99
2022-07-26T06:03:59.255Z,99.99
2022-07-26T06:04:57.213Z,99.99
2022-07-26T06:05:47.986Z,99.99
2022-07-26T06:06:47.945Z,99.99
2022-07-26T06:07:47.903Z,99.99
2022-07-26T06:08:47.861Z,99.99
2022-07-26T06:09:47.897Z,99.99
2022-07-26T06:10:47.778Z,99.99
2022-07-26T06:11:47.738Z,99.99
2022-07-26T06:12:47.698Z,99.99
2022-07-26T06:13:47.662Z,99.99
2022-07-26T06:14:47.618Z,99.99
2022-07-26T06:15:47.633Z,99.99
2022-07-26T06:16:47.595Z,99.99
2022-07-26T06:17:47.498Z,99.99
2022-07-26T06:18:47.464Z,99.99
2022-07-26T06:19:47.847Z,99.99
2022-07-26T06:20:47.381Z,99.99
2022-07-26T06:21:47.354Z,99.99
2022-07-26T06:22:47.296Z,99.99
2022-07-26T06:23:47.254Z,99.99
2022-07-26T06:24:47.242Z,99.99
2022-07-26T06:25:47.187Z,99.99
2022-07-26T06:26:47.139Z,99.99
2022-07-26T06:27:47.123Z,99.99
2022-07-26T06:28:47.060Z,99.99
2022-07-26T06:29:47.049Z,99.99
2022-07-26T06:30:46.983Z,99.88
2022-07-26T06:31:47.009Z,99.88
2022-07-26T06:32:46.896Z,99.40
2022-07-26T06:33:46.887Z,99.40
2022-07-26T06:34:46.819Z,98.97
2022-07-26T06:35:46.779Z,99.99
2022-07-26T06:36:46.740Z,98.87
2022-07-26T06:37:46.705Z,99.07
2022-07-26T06:38:46.665Z,98.49
2022-07-26T06:39:46.680Z,99.07
2022-07-26T06:40:46.593Z,98.97
2022-07-26T06:41:46.548Z,97.91
2022-07-26T06:42:46.505Z,96.94
2022-07-26T06:43:46.483Z,97.14
2022-07-26T06:44:46.428Z,96.94
2022-07-26T06:45:46.473Z,97.04
2022-07-26T06:46:46.353Z,97.42
2022-07-26T06:47:46.311Z,97.04
2022-07-26T06:48:47.285Z,97.24
2022-07-26T06:49:46.235Z,96.94
2022-07-26T06:50:46.192Z,96.56
2022-07-26T06:51:46.255Z,96.66
2022-07-26T06:52:48.055Z,97.33
2022-07-26T06:53:46.077Z,97.91
2022-07-26T06:54:46.038Z,98.49
2022-07-26T06:55:46.030Z,98.49
2022-07-26T06:56:45.987Z,98.39
2022-07-26T06:57:50.046Z,98.39
2022-07-26T06:58:45.913Z,97.04
2022-07-26T06:59:45.840Z,97.24
2022-07-26T07:00:45.854Z,98.20
2022-07-26T07:01:57.912Z,98.10
2022-07-26T07:02:45.757Z,98.00
2022-07-26T07:03:45.689Z,97.86
2022-07-26T07:04:45.670Z,98.05
2022-07-26T07:05:49.797Z,97.09
2022-07-26T07:06:45.573Z,96.89
2022-07-26T07:07:45.530Z,96.70
2022-07-26T07:08:45.507Z,96.80
2022-07-26T07:09:45.458Z,96.61
2022-07-26T07:10:45.412Z,96.70
2022-07-26T07:11:45.373Z,96.41
2022-07-26T07:12:45.334Z,96.94
2022-07-26T07:13:45.296Z,96.94
2022-07-26T07:14:45.283Z,96.08
2022-07-26T07:15:45.224Z,94.72
2022-07-26T07:16:45.265Z,94.72
2022-07-26T07:17:45.147Z,94.48
2022-07-26T07:18:45.104Z,93.61
2022-07-26T07:19:45.064Z,92.55
2022-07-26T07:20:45.040Z,91.77
2022-07-26T07:21:44.989Z,91.33
2022-07-26T07:22:44.954Z,90.56
2022-07-26T07:23:44.924Z,89.59
2022-07-26T07:24:44.875Z,89.59
2022-07-26T07:25:45.064Z,89.64
2022-07-26T07:26:44.799Z,87.61
2022-07-26T07:27:44.762Z,87.61
2022-07-26T07:28:44.724Z,85.68
2022-07-26T07:29:44.689Z,85.29
2022-07-26T07:30:44.652Z,85.19
2022-07-26T07:31:48.151Z,85.29
2022-07-26T07:32:44.642Z,85.29
2022-07-26T07:33:53.407Z,85.58
2022-07-26T07:34:44.498Z,85.48
2022-07-26T07:35:44.463Z,84.61
2022-07-26T07:36:44.435Z,84.42
2022-07-26T07:37:52.722Z,84.32
2022-07-26T07:38:44.351Z,84.36
2022-07-26T07:39:44.338Z,83.20
2022-07-26T07:40:44.272Z,81.46
2022-07-26T07:41:45.355Z,81.85
2022-07-26T07:42:44.201Z,79.82
2022-07-26T07:43:44.160Z,80.40
2022-07-26T07:44:44.127Z,80.59
2022-07-26T07:45:44.266Z,81.56
2022-07-26T07:46:44.112Z,82.47
2022-07-26T07:47:44.019Z,81.02
2022-07-26T07:48:47.577Z,80.98
2022-07-26T07:49:43.938Z,81.98
2022-07-26T07:50:43.902Z,81.50
2022-07-26T07:51:43.892Z,81.79
2022-07-26T07:52:43.832Z,81.40
2022-07-26T07:53:43.799Z,80.15
2022-07-26T07:54:43.756Z,80.24
2022-07-26T07:55:46.522Z,79.90
2022-07-26T07:56:43.679Z,78.92
2022-07-26T07:57:43.663Z,78.44
2022-07-26T07:58:43.609Z,78.05
2022-07-26T07:59:43.570Z,77.67
2022-07-26T08:00:43.574Z,76.12
2022-07-26T08:01:43.568Z,75.92
2022-07-26T08:02:43.460Z,76.51
2022-07-26T08:03:43.485Z,77.28
2022-07-26T08:04:43.443Z,77.47
2022-07-26T08:05:43.346Z,77.22
2022-07-26T08:06:43.324Z,75.96
2022-07-26T08:07:43.278Z,75.19
2022-07-26T08:08:43.239Z,75.96
2022-07-26T08:09:43.331Z,75.90
2022-07-26T08:10:49.167Z,75.32
2022-07-26T08:11:43.147Z,74.35
2022-07-26T08:12:43.091Z,74.68
2022-07-26T08:13:47.545Z,73.84
2022-07-26T08:14:43.017Z,72.67
2022-07-26T08:15:42.983Z,73.07
2022-07-26T08:16:43.026Z,72.33
2022-07-26T08:17:42.941Z,71.26
2022-07-26T08:18:56.068Z,71.74
2022-07-26T08:19:42.838Z,71.26
2022-07-26T08:20:42.816Z,71.64
2022-07-26T08:21:42.763Z,70.57
2022-07-26T08:22:42.735Z,69.70
2022-07-26T08:23:42.704Z,69.90
2022-07-26T08:24:42.659Z,68.93
2022-07-26T08:25:55.195Z,68.77
2022-07-26T08:26:42.587Z,67.70
2022-07-26T08:27:43.415Z,68.87
2022-07-26T08:28:47.804Z,68.87
2022-07-26T08:29:42.476Z,68.44
2022-07-26T08:30:42.455Z,69.64
2022-07-26T08:31:42.505Z,69.12
2022-07-26T08:32:42.370Z,69.02
2022-07-26T08:33:46.430Z,69.12
2022-07-26T08:34:42.297Z,69.60
2022-07-26T08:35:42.304Z,68.44
2022-07-26T08:37:06.881Z,69.32
2022-07-26T08:37:42.192Z,70.19
2022-07-26T08:38:50.282Z,70.57
2022-07-26T08:39:42.265Z,70.39
2022-07-26T08:40:42.091Z,67.86
2022-07-26T08:41:42.278Z,67.37
2022-07-26T08:42:42.020Z,67.86
2022-07-26T08:43:45.222Z,68.15
2022-07-26T08:44:42.352Z,68.83
2022-07-26T08:45:42.123Z,68.15
2022-07-26T08:46:41.956Z,68.25
2022-07-26T08:48:00.663Z,67.57
2022-07-26T08:48:41.944Z,66.11
2022-07-26T08:49:41.771Z,67.18
2022-07-26T08:50:41.936Z,67.57
2022-07-26T08:51:41.699Z,66.79
2022-07-26T08:52:41.949Z,66.99
2022-07-26T08:53:41.626Z,67.57
2022-07-26T08:54:41.597Z,67.76
2022-07-26T08:56:41.843Z,66.89
2022-07-26T08:57:41.588Z,67.21
2022-07-26T08:58:41.451Z,66.44
2022-07-26T08:59:41.409Z,65.50
2022-07-26T09:00:41.479Z,65.50
2022-07-26T09:01:41.826Z,63.20
2022-07-26T09:02:41.301Z,63.29
2022-07-26T09:03:41.530Z,62.26
2022-07-26T09:04:44.377Z,61.35
2022-07-26T09:05:41.193Z,61.64
2022-07-26T09:06:41.157Z,61.28
2022-07-26T09:07:41.470Z,60.79
2022-07-26T09:08:41.089Z,61.60
2022-07-26T09:09:41.266Z,59.66
2022-07-26T09:10:41.025Z,58.13
2022-07-26T09:11:43.118Z,57.18
2022-07-26T09:12:41.153Z,56.50
2022-07-26T09:13:42.106Z,56.60
2022-07-26T09:14:40.886Z,56.50
2022-07-26T09:15:42.122Z,57.70
2022-07-26T09:17:01.992Z,56.85
2022-07-26T09:17:48.834Z,55.97
2022-07-26T09:19:02.004Z,55.97
2022-07-26T09:19:40.720Z,56.00
2022-07-26T09:20:40.922Z,56.29
2022-07-26T09:21:40.644Z,56.32
2022-07-26T09:22:40.628Z,55.34
2022-07-26T09:23:40.945Z,54.30
2022-07-26T09:24:40.541Z,54.59
2022-07-26T09:25:41.780Z,54.42
2022-07-26T09:26:40.475Z,51.29
2022-07-26T09:27:40.437Z,51.59
2022-07-26T09:28:45.288Z,51.78
2022-07-26T09:29:40.585Z,51.49
2022-07-26T09:30:40.342Z,51.05
2022-07-26T09:31:40.668Z,48.72
2022-07-26T09:32:40.273Z,48.48
2022-07-26T09:33:40.249Z,47.08
2022-07-26T09:34:51.818Z,45.53
2022-07-26T09:35:51.354Z,43.00
2022-07-26T09:36:40.431Z,42.63
2022-07-26T09:37:40.123Z,41.78
2022-07-26T09:38:40.247Z,40.82
2022-07-26T09:39:40.057Z,41.24
2022-07-26T09:40:40.247Z,40.96
2022-07-26T09:41:40.205Z,40.37
2022-07-26T09:42:40.262Z,40.58
2022-07-26T09:43:39.934Z,39.31
2022-07-26T09:44:47.919Z,38.30
2022-07-26T09:45:39.876Z,37.69
2022-07-26T09:46:41.130Z,38.85
2022-07-26T09:47:40.141Z,39.31
2022-07-26T09:49:40.596Z,40.84
2022-07-26T09:50:39.754Z,40.74
2022-07-26T09:51:39.706Z,40.43
2022-07-26T09:52:39.923Z,40.48
2022-07-26T09:53:39.787Z,40.98
2022-07-26T09:54:39.736Z,41.33
2022-07-26T09:55:44.724Z,42.21
2022-07-26T09:56:39.534Z,42.38
2022-07-26T09:57:39.757Z,43.05
2022-07-26T09:58:39.477Z,43.84
2022-07-26T09:59:39.566Z,43.63
2022-07-26T10:00:39.620Z,43.54
2022-07-26T10:01:39.421Z,44.49
2022-07-26T10:02:39.384Z,44.89
2022-07-26T10:03:39.595Z,44.77
2022-07-26T10:04:39.281Z,44.67
2022-07-26T10:05:39.421Z,45.70
2022-07-26T10:06:39.244Z,46.48
2022-07-26T10:07:39.190Z,47.14
2022-07-26T10:08:39.427Z,46.75
2022-07-26T10:09:39.112Z,45.46
2022-07-26T10:10:39.243Z,46.44
2022-07-26T10:11:39.046Z,47.53
2022-07-26T10:12:39.298Z,47.53
2022-07-26T10:13:38.986Z,47.07
2022-07-26T10:14:39.091Z,46.78
2022-07-26T10:15:38.981Z,46.99
2022-07-26T10:16:39.074Z,45.82
2022-07-26T10:17:38.850Z,45.06
2022-07-26T10:18:39.156Z,43.62
2022-07-26T10:19:41.397Z,43.54
2022-07-26T10:20:38.744Z,42.90
2022-07-26T10:21:38.906Z,42.33
2022-07-26T10:22:38.963Z,41.86
2022-07-26T10:23:38.645Z,41.31
2022-07-26T10:24:38.615Z,40.45
2022-07-26T10:25:38.727Z,40.27
2022-07-26T10:26:38.553Z,38.11
2022-07-26T10:27:38.744Z,37.92
2022-07-26T10:28:38.520Z,38.19
2022-07-26T10:29:38.462Z,38.29
2022-07-26T10:30:38.563Z,38.27
2022-07-26T10:31:38.454Z,39.15
2022-07-26T10:32:38.577Z,38.62
2022-07-26T10:33:38.330Z,40.19
2022-07-26T10:34:38.589Z,39.33
2022-07-26T10:35:38.265Z,39.25
2022-07-26T10:36:38.404Z,38.09
2022-07-26T10:37:38.202Z,37.65
2022-07-26T10:38:38.414Z,36.61
2022-07-26T10:39:38.138Z,35.27
2022-07-26T10:40:38.145Z,33.54
2022-07-26T10:41:38.093Z,32.97
2022-07-26T10:42:38.237Z,32.57
2022-07-26T10:43:40.996Z,32.18
2022-07-26T10:44:38.254Z,32.37
2022-07-26T10:45:38.109Z,31.68
2022-07-26T10:46:38.055Z,32.77
2022-07-26T10:47:38.278Z,32.78
2022-07-26T10:48:37.931Z,31.71
2022-07-26T10:49:38.113Z,31.05
2022-07-26T10:50:37.851Z,30.57
2022-07-26T10:51:38.922Z,30.85
2022-07-26T10:52:37.793Z,29.74
2022-07-26T10:53:37.921Z,31.40
2022-07-26T10:54:37.722Z,31.88
2022-07-26T10:55:37.926Z,31.85
2022-07-26T10:56:37.655Z,32.13
2022-07-26T10:57:37.625Z,31.82
2022-07-26T10:58:37.831Z,32.67
2022-07-26T10:59:55.326Z,32.56
2022-07-26T11:00:37.539Z,32.84
2022-07-26T11:01:37.784Z,33.41
2022-07-26T11:02:37.512Z,33.48
2022-07-26T11:03:38.922Z,34.25
2022-07-26T11:04:37.691Z,35.58
2022-07-26T11:05:37.389Z,35.49
2022-07-26T11:06:37.499Z,35.66
2022-07-26T11:07:37.326Z,36.24
2022-07-26T11:08:37.316Z,37.61
2022-07-26T11:09:37.273Z,37.79
2022-07-26T11:10:37.532Z,37.77
2022-07-26T11:11:37.207Z,38.94
2022-07-26T11:12:37.340Z,39.43
2022-07-26T11:13:37.149Z,39.41
2022-07-26T11:14:37.100Z,40.17
2022-07-26T11:15:37.098Z,39.37
2022-07-26T11:16:37.365Z,39.08
2022-07-26T11:17:37.010Z,39.45
2022-07-26T11:18:37.172Z,40.31
2022-07-26T11:19:36.936Z,40.41
2022-07-26T11:20:37.185Z,41.09
2022-07-26T11:21:36.867Z,41.27
2022-07-26T11:22:37.198Z,40.09
2022-07-26T11:23:36.799Z,40.68
2022-07-26T11:24:37.008Z,40.88
2022-07-26T11:25:37.018Z,41.27
2022-07-26T11:26:36.701Z,41.05
2022-07-26T11:27:38.878Z,41.44
2022-07-26T11:28:36.655Z,41.66
2022-07-26T11:29:40.538Z,41.36
2022-07-26T11:30:36.563Z,41.46
2022-07-26T11:31:51.155Z,41.36
2022-07-26T11:32:36.695Z,41.36
2022-07-26T11:33:36.463Z,41.46
2022-07-26T11:34:36.459Z,41.09
2022-07-26T11:35:36.721Z,40.43
2022-07-26T11:36:36.364Z,40.19
2022-07-26T11:37:36.490Z,38.96
2022-07-26T11:38:36.293Z,37.52
2022-07-26T11:39:36.508Z,36.27
2022-07-26T11:40:36.366Z,35.58
2022-07-26T11:41:36.317Z,34.88
2022-07-26T11:42:36.162Z,35.08
2022-07-26T11:43:36.336Z,35.86
2022-07-26T11:44:36.110Z,35.96
2022-07-26T11:45:36.343Z,36.06
2022-07-26T11:46:36.124Z,35.68
2022-07-26T11:47:36.151Z,35.78
2022-07-26T11:48:36.015Z,35.31
2022-07-26T11:50:01.130Z,35.05
2022-07-26T11:50:35.932Z,34.06
2022-07-26T11:51:36.180Z,33.79
2022-07-26T11:52:35.845Z,33.69
2022-07-26T11:53:35.921Z,34.08
2022-07-26T11:54:35.774Z,33.22
2022-07-26T11:55:36.208Z,31.64
2022-07-26T11:56:35.721Z,31.45
2022-07-26T11:57:35.836Z,31.57
2022-07-26T11:58:35.664Z,32.00
2022-07-26T11:59:35.623Z,29.65
2022-07-26T12:00:35.838Z,29.57
2022-07-26T12:01:35.682Z,28.99
2022-07-26T12:02:35.654Z,29.09
2022-07-26T12:03:35.498Z,29.28
2022-07-26T12:04:35.576Z,28.99
2022-07-26T12:05:35.537Z,29.30
2022-07-26T12:06:35.678Z,28.83
2022-07-26T12:07:35.398Z,27.97
2022-07-26T12:08:35.648Z,25.44
2022-07-26T12:09:35.323Z,25.26
2022-07-26T12:10:35.302Z,23.50
2022-07-26T12:11:35.280Z,23.61
2022-07-26T12:12:35.520Z,22.71
2022-07-26T12:13:39.921Z,23.12
2022-07-26T12:14:35.184Z,23.71
2022-07-26T12:15:35.384Z,23.82
2022-07-26T12:16:35.213Z,23.04
2022-07-26T12:17:35.802Z,21.97
2022-07-26T12:18:35.080Z,21.78
2022-07-26T12:19:35.363Z,21.70
2022-07-26T12:20:35.031Z,20.51
2022-07-26T12:21:35.005Z,20.92
2022-07-26T12:22:34.976Z,20.43
2022-07-26T12:23:35.210Z,20.21
2022-07-26T12:24:34.922Z,21.00
2022-07-26T12:25:35.426Z,21.47
2022-07-26T12:26:34.913Z,21.15
2022-07-26T12:27:34.854Z,21.55
2022-07-26T12:28:35.013Z,22.14
2022-07-26T12:29:34.802Z,22.22
2022-07-26T12:30:35.085Z,22.70
2022-07-26T12:31:34.814Z,23.00
2022-07-26T12:32:36.933Z,22.80
2022-07-26T12:33:34.932Z,22.69
2022-07-26T12:34:34.878Z,22.97
2022-07-26T12:35:34.647Z,22.86
2022-07-26T12:36:34.900Z,23.85
2022-07-26T12:37:40.310Z,24.33
2022-07-26T12:38:34.557Z,23.86
2022-07-26T12:39:34.570Z,23.29
2022-07-26T12:40:34.703Z,23.30
2022-07-26T12:41:34.481Z,22.33
2022-07-26T12:42:34.927Z,22.13
2022-07-26T12:43:34.430Z,21.84
2022-07-26T12:44:34.425Z,21.04
2022-07-26T12:45:44.498Z,21.73
2022-07-26T12:48:06.185Z,22.15
2022-07-26T12:49:06.289Z,23.99
2022-07-26T12:50:06.121Z,24.96
2022-07-26T12:51:06.099Z,25.26
2022-07-26T12:52:06.066Z,25.34
2022-07-26T12:53:06.062Z,26.21
2022-07-26T12:54:06.019Z,26.21
2022-07-26T12:55:05.983Z,25.72
2022-07-26T12:56:05.954Z,26.42
2022-07-26T12:57:05.929Z,25.34
2022-07-26T12:58:05.902Z,25.54
2022-07-26T12:59:05.928Z,25.63
2022-07-26T13:00:05.855Z,25.54
2022-07-26T13:01:05.840Z,26.12
2022-07-26T13:02:05.790Z,26.31